Flight Track Log - Related Links

Times and Time Zones

All times are in EDT time to prevent confusion due to time zone crossing. See the EJA951 flight status page for this flight to view local times or setup timezone preferences in your user account.

Time Position Orientation Groundspeed Altitude Reporting Facility
EDT Latitude Longitude Course Direction KTS MPH feet Rate Location/Type
Tue 12:33:06 PM 37.4000 -121.9667 360° North 192 221 2,200  Level Northern Cal TRACON
Tue 12:34:06 PM 37.4333 -121.9667 360° North 208 239 4,900 1,350 Climbing Northern Cal TRACON
Tue 12:35:06 PM 37.4000 -121.9000 122° Southeast 244 281 4,900 1,318 Level Northern Cal TRACON
Tue 12:36:18 PM 37.3458 -121.8542 146° Southeast 240 276 7,800 2,256 Climbing Oakland Center
Tue 12:37:19 PM 37.2861 -121.8472 175° South 263 303 9,900 2,098 Climbing Oakland Center
Tue 12:38:21 PM 37.3106 -121.9197 293° West 263 303 12,100 2,000 Climbing Oakland Center
Tue 12:39:22 PM 37.3853 -121.9003 12° North 274 315 14,000 1,525 Climbing Oakland Center
Tue 12:40:23 PM 37.4692 -121.8642 19° North 313 360 15,200 1,268 Climbing Oakland Center
Tue 12:41:25 PM 37.5644 -121.7728 37° Northeast 375 432 16,600 1,415 Climbing Oakland Center
Tue 12:42:26 PM 37.6339 -121.6681 50° Northeast 387 445 18,100 1,525 Climbing Oakland Center
Tue 12:43:27 PM 37.7064 -121.5608 49° Northeast 398 458 19,700 1,707 Climbing Oakland Center
Tue 12:44:29 PM 37.7828 -121.4456 50° Northeast 408 470 21,600 1,805 Climbing Oakland Center
Tue 12:45:30 PM 37.8564 -121.3333 50° Northeast 413 475 23,400 1,820 Climbing Oakland Center
Tue 12:46:31 PM 37.9306 -121.2228 50° Northeast 415 478 25,300 1,869 Climbing Oakland Center
Tue 12:47:32 PM 38.0058 -121.1086 50° Northeast 423 487 27,200 1,854 Climbing Oakland Center
Tue 12:48:34 PM 38.0769 -120.9864 54° Northeast 436 502 29,100 1,951 Climbing Oakland Center
Tue 12:49:35 PM 38.1161 -120.8322 72° East 462 532 31,200 2,066 Climbing Oakland Center
Tue 12:50:36 PM 38.1611 -120.6442 73° East 467 537 33,300 1,610 Climbing Oakland Center
Tue 12:51:38 PM 38.1989 -120.4817 73° East 476 548 34,500 1,220 Climbing Oakland Center
Tue 12:52:39 PM 38.2281 -120.3092 78° East 493 567 35,800 1,279 Climbing Oakland Center
Tue 12:53:40 PM 38.2569 -120.1361 78° East 502 578 37,100 1,220 Climbing Oakland Center
Tue 12:54:42 PM 38.2869 -119.9625 78° East 504 580 38,300 927 Climbing Oakland Center
Tue 12:55:43 PM 38.3147 -119.7858 79° East 507 583 39,000 344 Climbing Oakland Center
Tue 12:56:44 PM 38.3464 -119.6044 77° East 524 603 39,000  Level Oakland Center
Tue 12:57:46 PM 38.3800 -119.3958 78° East 540 621 39,000  Level Oakland Center
Tue 12:58:47 PM 38.4139 -119.2031 77° East 553 636 39,000  Level Oakland Center
Tue 12:59:48 PM 38.4492 -119.0092 77° East 562 647 39,000  Level Oakland Center
Tue 01:00:50 PM 38.4814 -118.8144 78° East 561 646 39,000  Level Oakland Center
Tue 01:01:51 PM 38.5128 -118.6183 78° East 562 647 39,000  Level Oakland Center
Tue 01:02:53 PM 38.5419 -118.4208 79° East 564 649 39,000  Level Oakland Center
Tue 01:03:54 PM 38.5725 -118.2244 79° East 564 649 39,000  Level Oakland Center
Tue 01:04:55 PM 38.6058 -117.9914 80° East 555 639 39,000  Level Oakland Center
Tue 01:05:57 PM 38.6353 -117.7978 79° East 553 636 39,000  Level Oakland Center
Tue 01:06:58 PM 38.6631 -117.6069 79° East 545 627 39,000  Level Oakland Center
Tue 01:07:59 PM 38.6917 -117.4133 79° East 549 632 39,000  Level Oakland Center
Tue 01:09:01 PM 38.7192 -117.2156 80° East 557 641 39,000  Level Oakland Center
Tue 01:10:02 PM 38.7478 -117.0219 79° East 553 636 39,000  Level Oakland Center
Tue 01:10:36 PM 38.7631 -116.9072 80° East 552 635 39,000  Level Salt Lake Center
Tue 01:11:37 PM 38.7911 -116.7119 79° East 552 635 39,000  Level Salt Lake Center
Tue 01:12:39 PM 38.8181 -116.5172 80° East 552 635 39,000  Level Salt Lake Center
Tue 01:13:41 PM 38.8439 -116.3244 80° East 552 635 39,000  Level Salt Lake Center
Tue 01:14:43 PM 38.8714 -116.1303 80° East 551 634 39,000  Level Salt Lake Center
Tue 01:15:44 PM 38.8972 -115.9347 80° East 552 635 39,000  Level Salt Lake Center
Tue 01:16:46 PM 38.9225 -115.7383 81° East 553 636 39,000  Level Salt Lake Center
Tue 01:17:48 PM 38.9489 -115.5414 80° East 559 643 39,000  Level Salt Lake Center
Tue 01:18:50 PM 38.9778 -115.3233 80° East 559 643 39,000  Level Salt Lake Center
Tue 01:19:51 PM 39.0036 -115.1292 80° East 557 641 39,000  Level Salt Lake Center
Tue 01:20:53 PM 39.0264 -114.9372 81° East 550 633 39,000  Level Salt Lake Center
Tue 01:21:55 PM 39.0506 -114.7431 81° East 549 632 39,000  Level Salt Lake Center
Tue 01:22:57 PM 39.0794 -114.5075 81° East 553 636 39,000  Level Salt Lake Center
Tue 01:23:58 PM 39.1022 -114.3111 81° East 556 640 39,000  Level Salt Lake Center
Tue 01:25:00 PM 39.1261 -114.1156 81° East 555 639 39,000  Level Salt Lake Center
Tue 01:26:02 PM 39.1494 -113.9181 81° East 555 639 39,000  Level Salt Lake Center
Tue 01:27:04 PM 39.1719 -113.7211 82° East 556 640 39,000  Level Salt Lake Center
Tue 01:28:06 PM 39.1933 -113.5261 82° East 555 639 39,000  Level Salt Lake Center
Tue 01:29:07 PM 39.2147 -113.3300 82° East 554 638 39,000  Level Salt Lake Center
Tue 01:30:09 PM 39.2358 -113.1344 82° East 554 638 39,000  Level Salt Lake Center
Tue 01:31:11 PM 39.2619 -112.8967 82° East 554 638 39,000  Level Salt Lake Center
Tue 01:32:13 PM 39.2825 -112.6986 82° East 554 638 39,000  Level Salt Lake Center
Tue 01:33:15 PM 39.3053 -112.4925 82° East 556 640 39,000  Level Salt Lake Center
Tue 01:34:16 PM 39.3400 -112.3011 77° East 556 640 39,000  Level Salt Lake Center
Tue 01:35:18 PM 39.3764 -112.1067 76° East 558 642 39,000  Level Salt Lake Center
Tue 01:36:20 PM 39.4133 -111.9117 76° East 563 648 39,000  Level Salt Lake Center
Tue 01:37:22 PM 39.4483 -111.7136 77° East 565 650 39,000  Level Salt Lake Center
Tue 01:38:24 PM 39.4925 -111.4814 76° East 560 644 39,000  Level Salt Lake Center
Tue 01:39:26 PM 39.5256 -111.2825 78° East 564 649 39,000  Level Salt Lake Center
Tue 01:40:28 PM 39.5622 -111.0847 76° East 564 649 39,000  Level Salt Lake Center
Tue 01:41:29 PM 39.5961 -110.8950 77° East 564 649 39,000  Level Salt Lake Center
Tue 01:42:31 PM 39.6317 -110.6753 78° East 562 647 39,000  Level Salt Lake Center
Tue 01:43:33 PM 39.6650 -110.4872 77° East 560 644 39,000  Level Salt Lake Center
Tue 01:44:35 PM 39.7006 -110.2689 78° East 558 642 39,000  Level Salt Lake Center
Tue 01:45:37 PM 39.7342 -110.0803 77° East 558 642 39,000  Level Salt Lake Center
Tue 01:46:39 PM 39.7697 -109.8611 78° East 558 642 39,000  Level Salt Lake Center
Tue 01:47:41 PM 39.7989 -109.6733 79° East 557 641 39,000  Level Salt Lake Center
Tue 01:48:43 PM 39.8339 -109.4506 78° East 558 642 39,000  Level Salt Lake Center
Tue 01:49:45 PM 39.8647 -109.2597 78° East 559 643 39,000  Level Salt Lake Center
Tue 01:50:47 PM 39.8950 -109.0689 78° East 559 643 39,000  Level Salt Lake Center
Tue 01:51:49 PM 39.9297 -108.8450 78° East 559 643 39,000  Level Salt Lake Center
Tue 01:52:51 PM 39.9586 -108.6525 79° East 558 642 39,000  Level Salt Lake Center
Tue 01:53:53 PM 39.9928 -108.4297 79° East 558 642 39,000  Level Salt Lake Center
Tue 01:54:26 PM 40.0067 -108.3319 79° East 558 642 39,000  Level Denver Center
Tue 01:55:28 PM 40.0347 -108.1428 79° East 557 641 39,000  Level Denver Center
Tue 01:56:30 PM 40.0689 -107.9206 79° East 557 641 39,000  Level Denver Center
Tue 01:57:33 PM 40.1097 -107.7364 74° East 555 639 39,000  Level Denver Center
Tue 01:58:35 PM 40.1603 -107.5219 73° East 555 639 39,000  Level Denver Center
Tue 01:59:37 PM 40.2017 -107.3358 74° East 555 639 39,000  Level Denver Center
Tue 02:00:39 PM 40.2511 -107.1200 73° East 555 639 39,000  Level Denver Center
Tue 02:01:41 PM 40.2925 -106.9342 74° East 555 639 39,000  Level Denver Center
Tue 02:02:55 PM 40.3381 -106.7381 73° East 557 641 39,000  Level Denver Center
Tue 02:03:58 PM 40.3908 -106.4972 74° East 557 641 39,000  Level Denver Center
Tue 02:05:00 PM 40.4381 -106.2781 74° East 558 642 39,000  Level Denver Center
Tue 02:06:02 PM 40.4806 -106.0772 74° East 557 641 39,000  Level Denver Center
Tue 02:07:04 PM 40.5225 -105.8825 74° East 557 641 39,000  Level Denver Center
Tue 02:08:06 PM 40.5631 -105.6864 75° East 557 641 39,000  Level Denver Center
Tue 02:09:20 PM 40.6044 -105.4900 74° East 557 641 39,000  Level Denver Center
Tue 02:10:22 PM 40.6500 -105.2122 78° East 556 640 39,000  Level Denver Center
Tue 02:11:24 PM 40.6647 -105.0081 85° East 556 640 39,000  Level Denver Center
Tue 02:12:26 PM 40.6800 -104.8047 84° East 557 641 39,000  Level Denver Center
Tue 02:13:28 PM 40.6944 -104.6056 84° East 548 631 39,000  Level Denver Center
Tue 02:14:30 PM 40.7083 -104.4028 85° East 554 638 39,000  Level Denver Center
Tue 02:15:32 PM 40.7219 -104.1964 85° East 560 644 39,000  Level Denver Center
Tue 02:16:34 PM 40.7364 -103.9908 85° East 561 646 39,000  Level Denver Center
Tue 02:17:36 PM 40.7519 -103.7442 85° East 561 646 39,000  Level Denver Center
Tue 02:18:38 PM 40.7644 -103.5386 85° East 561 646 39,000  Level Denver Center
Tue 02:19:40 PM 40.7767 -103.3331 85° East 562 647 39,000  Level Denver Center
Tue 02:20:42 PM 40.7892 -103.1297 85° East 560 644 39,000  Level Denver Center
Tue 02:21:44 PM 40.8022 -102.9156 85° East 561 646 39,000  Level Denver Center
Tue 02:22:45 PM 40.8131 -102.7181 86° East 561 646 39,000  Level Denver Center
Tue 02:23:47 PM 40.8253 -102.4869 86° East 562 647 39,000  Level Denver Center
Tue 02:24:49 PM 40.8350 -102.2889 86° East 563 648 39,000  Level Denver Center
Tue 02:25:51 PM 40.8464 -102.0583 86° East 564 649 39,000  Level Denver Center
Tue 02:26:53 PM 40.8556 -101.8592 86° East 566 651 39,000  Level Denver Center
Tue 02:27:54 PM 40.8644 -101.6950 86° East 566 651 39,000  Level Denver Center
Tue 02:28:57 PM 40.8753 -101.4314 87° East 564 649 39,000  Level Denver Center
Tue 02:29:58 PM 40.8853 -101.2003 87° East 564 649 39,000  Level Denver Center
Tue 02:31:00 PM 40.8936 -101.0006 87° East 564 649 39,000  Level Denver Center
Tue 02:32:02 PM 40.9011 -100.7939 87° East 565 650 39,000  Level Denver Center
Tue 02:33:04 PM 40.9106 -100.5614 87° East 564 649 39,000  Level Denver Center
Tue 02:34:06 PM 40.9183 -100.3586 87° East 568 654 39,000  Level Denver Center
Tue 02:35:07 PM 40.9244 -100.1614 88° East 567 652 39,000  Level Denver Center
Tue 02:36:09 PM 40.9317 -99.9314 88° East 565 650 39,000  Level Denver Center
Tue 02:37:11 PM 40.9383 -99.7206 88° East 562 647 39,000  Level Denver Center
Tue 02:38:12 PM 40.9422 -99.5578 88° East 560 644 39,000  Level Denver Center
Tue 02:39:14 PM 40.9489 -99.3122 88° East 560 644 39,000  Level Denver Center
Tue 02:40:16 PM 40.9550 -99.0819 88° East 558 642 39,000  Level Denver Center
Tue 02:41:06 PM 40.9583 -98.9208 88° East 560 644 39,000  Level Minneapolis Center
Tue 02:42:08 PM 40.9622 -98.7158 88° East 560 644 39,000  Level Minneapolis Center
Tue 02:43:10 PM 40.9661 -98.5111 88° East 560 644 39,000  Level Minneapolis Center
Tue 02:44:11 PM 40.9697 -98.3019 89° East 560 644 39,000  Level Minneapolis Center
Tue 02:45:13 PM 40.9725 -98.0964 89° East 560 644 39,000  Level Minneapolis Center
Tue 02:46:15 PM 40.9750 -97.8917 89° East 560 644 39,000  Level Minneapolis Center
Tue 02:47:17 PM 40.9775 -97.6439 89° East 560 644 39,000  Level Minneapolis Center
Tue 02:48:18 PM 40.9800 -97.4358 89° East 562 647 39,000  Level Minneapolis Center
Tue 02:49:20 PM 40.9817 -97.2331 89° East 565 650 39,000  Level Minneapolis Center
Tue 02:50:22 PM 40.9819 -97.0250 90° East 565 650 39,000  Level Minneapolis Center
Tue 02:51:23 PM 40.9828 -96.8178 90° East 565 650 39,000  Level Minneapolis Center
Tue 02:52:25 PM 40.9844 -96.6136 89° East 564 649 39,000  Level Minneapolis Center
Tue 02:53:27 PM 40.9847 -96.3667 90° East 564 649 39,000  Level Minneapolis Center
Tue 02:54:28 PM 40.9842 -96.1617 90° East 564 649 39,000  Level Minneapolis Center
Tue 02:55:30 PM 40.9839 -95.9575 90° East 564 649 39,000  Level Minneapolis Center
Tue 02:56:32 PM 40.9822 -95.7503 91° East 565 650 39,000  Level Minneapolis Center
Tue 02:57:33 PM 40.9811 -95.5450 90° East 565 650 39,000  Level Minneapolis Center
Tue 02:58:35 PM 40.9797 -95.3386 90° East 565 650 39,000  Level Minneapolis Center
Tue 02:59:37 PM 40.9769 -95.0911 91° East 565 650 39,000  Level Minneapolis Center
Tue 03:00:38 PM 40.9747 -94.8828 91° East 565 650 39,000  Level Minneapolis Center
Tue 03:01:40 PM 40.9719 -94.6769 91° East 565 650 39,000  Level Minneapolis Center
Tue 03:02:42 PM 40.9669 -94.4717 92° East 565 650 39,000  Level Minneapolis Center
Tue 03:03:43 PM 40.9628 -94.2664 91° East 565 650 39,000  Level Minneapolis Center
Tue 03:04:45 PM 40.9583 -94.0586 92° East 565 650 39,000  Level Minneapolis Center
Tue 03:05:46 PM 40.9536 -93.8494 92° East 570 656 39,000  Level Minneapolis Center
Tue 03:06:48 PM 40.9481 -93.5950 92° East 574 661 39,000  Level Minneapolis Center
Tue 03:07:49 PM 40.9436 -93.3833 92° East 577 664 39,000 244 Level Minneapolis Center
Tue 03:08:51 PM 40.9375 -93.1714 92° East 577 664 39,500 732 Climbing Minneapolis Center
Tue 03:09:52 PM 40.9325 -92.9653 92° East 570 656 40,500 738 Climbing Minneapolis Center
Tue 03:10:53 PM 40.9258 -92.7633 92° East 558 642 41,000 244 Climbing Minneapolis Center
Tue 03:11:55 PM 40.9203 -92.5603 92° East 557 641 41,000  Level Minneapolis Center
Tue 03:12:56 PM 40.9131 -92.3522 93° East 558 642 41,000  Level Minneapolis Center
Tue 03:13:57 PM 40.9042 -92.1453 93° East 561 646 41,000  Level Minneapolis Center
Tue 03:14:59 PM 40.8975 -91.9403 92° East 561 646 41,000  Level Minneapolis Center
Tue 03:16:00 PM 40.8883 -91.7164 93° East 561 646 41,000  Level Minneapolis Center
Tue 03:17:25 PM 40.8758 -91.4064 93° East 561 646 41,000  Level Chicago Center
Tue 03:18:27 PM 40.8669 -91.2042 93° East 563 648 41,000  Level Chicago Center
Tue 03:19:29 PM 40.8572 -90.9975 93° East 567 652 41,000  Level Chicago Center
Tue 03:20:31 PM 40.8475 -90.7908 93° East 564 649 41,000  Level Chicago Center
Tue 03:21:32 PM 40.8375 -90.5828 94° East 567 652 41,000  Level Chicago Center
Tue 03:22:34 PM 40.8264 -90.3769 94° East 564 649 41,000  Level Chicago Center
Tue 03:23:36 PM 40.8131 -90.1283 94° East 566 651 41,000  Level Chicago Center
Tue 03:24:38 PM 40.8025 -89.9192 94° East 564 649 41,000  Level Chicago Center
Tue 03:25:40 PM 40.7883 -89.7028 95° East 564 649 41,000  Level Chicago Center
Tue 03:26:42 PM 40.7761 -89.4944 94° East 565 650 41,000  Level Chicago Center
Tue 03:27:44 PM 40.7639 -89.2878 94° East 564 649 41,000  Level Chicago Center
Tue 03:28:45 PM 40.7508 -89.0817 95° East 564 649 41,000  Level Chicago Center
Tue 03:29:47 PM 40.7378 -88.8753 95° East 566 651 41,000  Level Chicago Center
Tue 03:30:49 PM 40.7239 -88.6697 95° East 565 650 41,000  Level Chicago Center
Tue 03:31:51 PM 40.7103 -88.4642 95° East 563 648 41,000  Level Chicago Center
Tue 03:32:53 PM 40.6919 -88.2164 95° East 566 651 41,000  Level Chicago Center
Tue 03:33:55 PM 40.6772 -88.0097 95° East 568 654 41,000  Level Chicago Center
Tue 03:34:57 PM 40.6625 -87.8044 95° East 564 649 41,000  Level Chicago Center
Tue 03:35:59 PM 40.6486 -87.6064 95° East 564 649 41,000  Level Chicago Center
Tue 03:37:01 PM 40.6314 -87.4022 96° East 561 646 41,000  Level Chicago Center
Tue 03:38:04 PM 40.6153 -87.1972 96° East 563 648 41,000  Level Chicago Center
Tue 03:39:06 PM 40.5956 -86.9508 96° East 564 649 41,000  Level Chicago Center
Tue 03:40:08 PM 40.5783 -86.7450 96° East 565 650 41,000  Level Chicago Center
Tue 03:41:10 PM 40.5606 -86.5403 96° East 564 649 41,000  Level Chicago Center
Tue 03:42:12 PM 40.5431 -86.3336 96° East 566 651 41,000  Level Chicago Center
Tue 03:43:14 PM 40.5244 -86.1264 97° East 568 654 41,000  Level Chicago Center
Tue 03:44:16 PM 40.5050 -85.9186 97° East 569 655 41,000  Level Chicago Center
Tue 03:45:18 PM 40.4828 -85.6706 97° East 570 656 41,000  Level Chicago Center
Tue 03:46:20 PM 40.4631 -85.4625 97° East 570 656 41,000  Level Chicago Center
Tue 03:47:22 PM 40.4419 -85.2533 97° East 574 661 41,000  Level Chicago Center
Tue 03:48:25 PM 40.4222 -85.0456 97° East 575 662 41,000  Level Chicago Center
Tue 03:49:27 PM 40.4011 -84.8394 98° East 572 658 41,000  Level Chicago Center
Tue 03:50:29 PM 40.3792 -84.6200 97° East 575 662 41,000  Level Chicago Center
Tue 03:51:31 PM 40.3581 -84.4222 98° East 577 664 41,000  Level Chicago Center
Tue 03:52:33 PM 40.3353 -84.2050 98° East 577 664 41,000  Level Chicago Center
Tue 03:53:35 PM 40.3081 -83.9572 98° East 576 663 41,000  Level Chicago Center
Tue 03:54:37 PM 40.2858 -83.7508 98° East 576 663 41,000  Level Chicago Center
Tue 03:56:06 PM 40.2511 -83.4358 98° East 575 662 41,000  Level Indianapolis Center
Tue 03:57:08 PM 40.2267 -83.2269 99° East 575 662 41,000  Level Indianapolis Center
Tue 03:58:10 PM 40.2028 -83.0183 98° East 575 662 41,000  Level Indianapolis Center
Tue 03:59:12 PM 40.1778 -82.8111 99° East 575 662 41,000  Level Indianapolis Center
Tue 04:00:14 PM 40.1533 -82.6064 99° East 575 662 41,000  Level Indianapolis Center
Tue 04:01:16 PM 40.1144 -82.4061 104° East 570 656 41,000  Level Indianapolis Center
Tue 04:02:18 PM 40.0725 -82.2069 105° East 569 655 41,000  Level Indianapolis Center
Tue 04:03:21 PM 40.0225 -81.9692 105° East 569 655 41,000  Level Indianapolis Center
Tue 04:04:23 PM 39.9811 -81.7708 105° East 565 650 41,000  Level Indianapolis Center
Tue 04:05:25 PM 39.9389 -81.5761 106° East 565 650 41,000  Level Indianapolis Center
Tue 04:06:27 PM 39.8958 -81.3775 106° East 565 650 41,000  Level Indianapolis Center
Tue 04:07:29 PM 39.8531 -81.1800 106° East 565 650 41,000  Level Indianapolis Center
Tue 04:08:31 PM 39.8103 -80.9833 106° East 565 650 41,000 -48 Level Indianapolis Center
Tue 04:09:33 PM 39.7675 -80.7875 106° East 564 649 40,900 -726 Descending Indianapolis Center
Tue 04:10:35 PM 39.7142 -80.5511 106° East 564 649 39,500 -1,452 Descending Indianapolis Center
Tue 04:11:37 PM 39.6675 -80.3483 107° East 578 665 37,900 -1,984 Descending Indianapolis Center
Tue 04:12:39 PM 39.6222 -80.1486 106° East 579 666 35,400 -4,705 Descending Indianapolis Center
Tue 04:13:56 PM 39.5733 -79.9208 105° East 570 656 27,000 -2,609 Descending Washington Center
Tue 04:14:57 PM 39.5344 -79.7275 105° East 556 640 29,400  Climbing Washington Center
Tue 04:15:58 PM 39.5033 -79.5372 102° East 551 634 27,000 -1,866 Descending Washington Center
Tue 04:16:56 PM 39.4694 -79.3528 103° East 539 620 25,700 -1,412 Descending Washington Center
Tue 04:17:57 PM 39.4331 -79.1814 105° East 520 598 24,200 -1,220 Descending Washington Center
Tue 04:18:59 PM 39.4042 -79.0269 104° East 475 547 23,200 -1,600 Descending Washington Center
Tue 04:19:57 PM 39.3792 -78.8833 103° East 435 501 21,000 -2,237 Descending Washington Center
Tue 04:20:57 PM 39.3558 -78.7428 102° East 412 474 18,800 -2,033 Descending Washington Center
Tue 04:21:58 PM 39.3300 -78.6047 104° East 401 461 16,900 -1,983 Descending Washington Center
Tue 04:22:58 PM 39.3064 -78.4725 103° East 387 445 14,800 -1,881 Descending Washington Center
Tue 04:23:56 PM 39.2778 -78.3533 107° East 369 425 13,200 -1,714 Descending Washington Center
Tue 04:24:57 PM 39.2278 -78.2550 123° Southeast 341 392 11,400 -1,475 Descending Washington Center
Tue 04:25:58 PM 39.1819 -78.1675 124° Southeast 319 367 10,200 -706 Descending Washington Center
Tue 04:26:56 PM 39.1378 -78.0883 126° Southeast 295 339 10,000 -356 Descending Washington Center
Tue 04:27:56 PM 39.0914 -78.0011 124° Southeast 289 333 9,500 -1,140 Descending Washington Center
Tue 04:28:57 PM 39.0453 -77.9142 124° Southeast 289 333 7,700 -1,672 Descending Washington Center
Tue 04:29:58 PM 39.0011 -77.8272 123° Southeast 283 326 6,100 -958 Descending Washington Center
Tue 04:30:56 PM 38.9650 -77.7461 120° Southeast 271 312 5,800 -153 Descending Washington Center
Tue 04:31:56 PM 38.9500 -77.6494 101° East 266 306 5,800 112 Level Washington Center
Tue 04:32:43 PM 38.9000 -77.6000 142° Southeast 271 312 6,000 -56 Climbing Potomac TRACON
Tue 04:33:43 PM 38.8333 -77.5667 159° South 228 262 5,700 -446 Descending Potomac TRACON
Tue 04:34:44 PM 38.7833 -77.5833 195° South 200 230 5,100 -793 Descending Potomac TRACON
Tue 04:35:44 PM 38.7500 -77.5333 131° Southeast 211 243 4,100 -1,000 Descending Potomac TRACON
Tue 04:36:44 PM 38.7833 -77.4833 49° Northeast 191 220 3,100 -893 Descending Potomac TRACON
Tue 04:37:45 PM 38.8167 -77.4500 38° Northeast 167 192 2,300 -793 Descending Potomac TRACON
Tue 04:38:45 PM 38.8667 -77.4333 15° North 166 191 1,500 -800 Descending Potomac TRACON
Tue 04:39:45 PM 38.9000 -77.4333 360° North 135 155 700 -800 Descending Potomac TRACON
Tue 04:41:00 PM 38.9333 -77.4500 10° North  Level FlightAware Approximate
Tue 04:48:00 PM 38.9474 -77.4599 10° North  Level Estimated
Tue 04:49:00 PM 38.9474 -77.4599 186° South  Level Estimated
Tue 04:50:00 PM 38.9474 -77.4599 10° North  Level Estimated

Login

Don't have an account? Register now (free) for customized features, flight alerts, and more!